createdAt,value
2023-05-24T00:01:57.183Z,100515.34
2023-05-24T00:04:25.176Z,100504.75
2023-05-24T00:06:54.762Z,100507.44
2023-05-24T00:09:21.680Z,100509.59
2023-05-24T00:11:49.147Z,100508.22
2023-05-24T00:14:16.192Z,100507.72
2023-05-24T00:16:42.727Z,100505.78
2023-05-24T00:19:11.358Z,100510.16
2023-05-24T00:21:38.350Z,100505.78
2023-05-24T00:24:04.953Z,100518.75
2023-05-24T00:26:31.399Z,100517.63
2023-05-24T00:28:57.827Z,100515.16
2023-05-24T00:31:24.340Z,100521.81
2023-05-24T00:33:50.820Z,100518.69
2023-05-24T00:36:17.242Z,100520.97
2023-05-24T00:38:43.663Z,100518.22
2023-05-24T00:41:11.462Z,100518.47
2023-05-24T00:43:38.127Z,100521.88
2023-05-24T00:46:18.904Z,100510.59
2023-05-24T00:48:45.867Z,100512.03
2023-05-24T00:51:13.340Z,100503.97
2023-05-24T00:53:41.322Z,100508.16
2023-05-24T00:56:08.706Z,100519.88
2023-05-24T00:58:35.413Z,100513.19
2023-05-24T01:01:03.009Z,100518.09
2023-05-24T01:03:29.875Z,100514.19
2023-05-24T01:06:03.998Z,100512.50
2023-05-24T01:08:42.802Z,100508.97
2023-05-24T01:11:27.412Z,100510.78
2023-05-24T01:14:26.918Z,100512.63
2023-05-24T01:17:05.716Z,100511.72
2023-05-24T01:20:00.023Z,100506.69
2023-05-24T01:22:44.083Z,100504.59
2023-05-24T01:25:41.875Z,100506.50
2023-05-24T01:28:11.342Z,100505.31
2023-05-24T01:30:41.624Z,100507.19
2023-05-24T01:33:08.972Z,100505.00
2023-05-24T01:35:40.197Z,100501.38
2023-05-24T01:38:07.313Z,100502.47
2023-05-24T01:40:34.673Z,100497.06
2023-05-24T01:43:19.842Z,100499.84
2023-05-24T01:46:17.290Z,100508.66
2023-05-24T01:49:02.919Z,100515.50
2023-05-24T01:51:38.658Z,100514.34
2023-05-24T01:54:06.694Z,100513.69
2023-05-24T01:56:34.450Z,100518.06
2023-05-24T01:59:03.354Z,100510.59
2023-05-24T02:01:31.977Z,100510.09
2023-05-24T02:03:59.330Z,100505.06
2023-05-24T02:06:25.787Z,100511.91
2023-05-24T02:08:53.513Z,100507.81
2023-05-24T02:11:19.992Z,100505.06
2023-05-24T02:13:46.488Z,100508.00
2023-05-24T02:16:13.483Z,100500.50
2023-05-24T02:18:40.193Z,100499.59
2023-05-24T02:21:06.742Z,100503.13
2023-05-24T02:23:33.254Z,100508.63
2023-05-24T02:25:59.748Z,100509.53
2023-05-24T02:28:26.235Z,100512.84
2023-05-24T02:30:52.697Z,100514.22
2023-05-24T02:33:19.136Z,100516.59
2023-05-24T02:35:45.601Z,100508.63
2023-05-24T02:38:12.141Z,100509.75
2023-05-24T02:40:38.610Z,100503.91
2023-05-24T02:43:05.063Z,100510.06
2023-05-24T02:45:31.514Z,100510.50
2023-05-24T02:47:57.999Z,100509.81
2023-05-24T02:50:24.689Z,100506.47
2023-05-24T02:52:51.657Z,100511.78
2023-05-24T02:55:18.261Z,100509.38
2023-05-24T02:57:44.703Z,100508.78
2023-05-24T03:00:11.886Z,100501.44
2023-05-24T03:02:38.581Z,100493.41
2023-05-24T03:05:05.967Z,100496.47
2023-05-24T03:07:32.492Z,100495.03
2023-05-24T03:09:59.050Z,100490.38
2023-05-24T03:12:25.549Z,100488.31
2023-05-24T03:14:51.959Z,100488.72
2023-05-24T03:17:18.491Z,100491.97
2023-05-24T03:19:45.201Z,100492.84
2023-05-24T03:22:11.668Z,100497.78
2023-05-24T03:24:38.455Z,100495.31
2023-05-24T03:27:06.044Z,100499.09
2023-05-24T03:29:32.550Z,100497.69
2023-05-24T03:31:59.193Z,100501.66
2023-05-24T03:34:25.868Z,100505.22
2023-05-24T03:36:52.313Z,100505.97
2023-05-24T03:39:18.758Z,100508.47
2023-05-24T03:41:45.223Z,100520.31
2023-05-24T03:44:11.673Z,100519.34
2023-05-24T03:46:38.280Z,100515.31
2023-05-24T03:49:04.816Z,100519.81
2023-05-24T03:51:31.351Z,100525.94
2023-05-24T03:53:57.871Z,100528.25
2023-05-24T03:56:26.594Z,100527.09
2023-05-24T03:58:53.244Z,100530.56
2023-05-24T04:01:32.607Z,100526.28
2023-05-24T04:04:01.527Z,100528.06
2023-05-24T04:06:31.315Z,100532.03
2023-05-24T04:08:59.624Z,100527.91
2023-05-24T04:11:28.489Z,100535.78
2023-05-24T04:14:00.483Z,100535.72
2023-05-24T04:16:27.505Z,100530.75
2023-05-24T04:18:55.276Z,100539.03
2023-05-24T04:21:22.719Z,100541.53
2023-05-24T04:23:49.391Z,100543.13
2023-05-24T04:26:16.106Z,100537.41
2023-05-24T04:28:42.553Z,100531.13
2023-05-24T04:31:10.048Z,100537.84
2023-05-24T04:33:36.880Z,100537.75
2023-05-24T04:36:03.463Z,100539.53
2023-05-24T04:38:32.216Z,100549.91
2023-05-24T04:40:59.442Z,100551.78
2023-05-24T04:43:29.019Z,100541.16
2023-05-24T04:45:55.875Z,100539.53
2023-05-24T04:48:24.379Z,100536.19
2023-05-24T04:50:52.432Z,100536.63
2023-05-24T04:53:20.150Z,100544.63
2023-05-24T04:55:47.343Z,100535.19
2023-05-24T04:58:14.204Z,100535.19
2023-05-24T05:00:40.837Z,100535.63
2023-05-24T05:03:08.377Z,100543.00
2023-05-24T05:05:34.895Z,100546.06
2023-05-24T05:08:01.784Z,100546.50
2023-05-24T05:10:28.224Z,100545.72
2023-05-24T05:12:54.685Z,100543.69
2023-05-24T05:15:23.222Z,100545.47
2023-05-24T05:17:50.194Z,100553.63
2023-05-24T05:20:16.921Z,100553.63
2023-05-24T05:22:49.790Z,100559.88
2023-05-24T05:25:16.496Z,100560.84
2023-05-24T05:27:43.743Z,100549.63
2023-05-24T05:30:10.906Z,100552.63
2023-05-24T05:32:37.834Z,100555.00
2023-05-24T05:35:05.145Z,100550.13
2023-05-24T05:37:31.661Z,100549.22
2023-05-24T05:39:58.172Z,100557.03
2023-05-24T05:42:24.789Z,100566.50
2023-05-24T05:44:52.509Z,100562.44
2023-05-24T05:47:19.090Z,100563.72
2023-05-24T05:49:45.569Z,100559.00
2023-05-24T05:52:12.106Z,100561.34
2023-05-24T05:54:38.588Z,100559.16
2023-05-24T05:57:05.430Z,100556.78
2023-05-24T05:59:35.864Z,100555.06
2023-05-24T06:02:04.058Z,100564.53
2023-05-24T06:04:30.633Z,100552.13
2023-05-24T06:06:57.172Z,100561.53
2023-05-24T06:09:23.611Z,100559.41
2023-05-24T06:11:50.104Z,100559.47
2023-05-24T06:14:21.257Z,100561.13
2023-05-24T06:16:47.980Z,100566.97
2023-05-24T06:19:15.361Z,100560.25
2023-05-24T06:21:47.190Z,100560.56
2023-05-24T06:24:15.186Z,100561.38
2023-05-24T06:26:42.025Z,100563.00
2023-05-24T06:29:09.515Z,100564.34
2023-05-24T06:31:36.084Z,100562.94
2023-05-24T06:34:04.283Z,100564.13
2023-05-24T06:36:34.104Z,100566.41
2023-05-24T06:39:01.345Z,100563.91
2023-05-24T06:41:28.353Z,100575.81
2023-05-24T06:43:55.101Z,100571.69
2023-05-24T06:46:21.584Z,100574.63
2023-05-24T06:48:48.060Z,100573.22
2023-05-24T06:51:14.724Z,100570.09
2023-05-24T06:53:41.614Z,100572.44
2023-05-24T06:56:09.411Z,100575.25
2023-05-24T06:58:36.623Z,100584.84
2023-05-24T07:01:05.002Z,100580.88
2023-05-24T07:03:34.737Z,100580.69
2023-05-24T07:06:01.672Z,100579.31
2023-05-24T07:08:28.165Z,100581.88
2023-05-24T07:10:54.954Z,100578.16
2023-05-24T07:13:21.543Z,100580.41
2023-05-24T07:15:48.123Z,100588.19
2023-05-24T07:18:14.880Z,100578.53
2023-05-24T07:20:41.685Z,100578.00
2023-05-24T07:23:08.554Z,100583.63
2023-05-24T07:25:35.038Z,100576.75
2023-05-24T07:28:01.564Z,100580.22
2023-05-24T07:30:32.720Z,100578.41
2023-05-24T07:33:02.552Z,100582.16
2023-05-24T07:35:29.414Z,100579.94
2023-05-24T07:37:56.442Z,100588.97
2023-05-24T07:40:23.209Z,100585.06
2023-05-24T07:42:50.022Z,100583.47
2023-05-24T07:45:16.586Z,100581.13
2023-05-24T07:47:43.106Z,100578.06
2023-05-24T07:50:10.575Z,100575.84
2023-05-24T07:52:38.725Z,100576.16
2023-05-24T07:55:08.806Z,100570.22
2023-05-24T07:57:35.266Z,100569.88
2023-05-24T08:00:10.135Z,100568.16
2023-05-24T08:02:36.754Z,100573.31
2023-05-24T08:05:05.055Z,100572.81
2023-05-24T08:07:31.503Z,100574.16
2023-05-24T08:09:57.946Z,100573.75
2023-05-24T08:12:25.913Z,100573.28
2023-05-24T08:14:52.610Z,100574.59
2023-05-24T08:17:19.338Z,100577.09
2023-05-24T08:19:45.871Z,100568.25
2023-05-24T08:22:12.738Z,100585.28
2023-05-24T08:24:39.185Z,100575.06
2023-05-24T08:27:05.658Z,100577.97
2023-05-24T08:29:32.428Z,100573.22
2023-05-24T08:31:59.903Z,100576.09
2023-05-24T08:34:26.767Z,100573.44
2023-05-24T08:36:53.736Z,100574.84
2023-05-24T08:39:20.201Z,100568.34
2023-05-24T08:41:57.338Z,100575.00
2023-05-24T08:44:41.340Z,100569.09
2023-05-24T08:47:09.183Z,100568.31
2023-05-24T08:49:37.310Z,100561.28
2023-05-24T08:52:07.445Z,100572.94
2023-05-24T08:54:37.546Z,100561.78
2023-05-24T08:57:04.634Z,100565.59
2023-05-24T08:59:31.153Z,100561.94
2023-05-24T09:01:58.035Z,100558.56
2023-05-24T09:04:27.112Z,100552.69
2023-05-24T09:06:54.851Z,100549.81
2023-05-24T09:09:22.174Z,100553.28
2023-05-24T09:11:51.804Z,100544.63
2023-05-24T09:14:18.742Z,100549.06
2023-05-24T09:16:45.729Z,100539.13
2023-05-24T09:19:12.334Z,100546.00
2023-05-24T09:21:38.963Z,100544.97
2023-05-24T09:24:08.786Z,100540.22
2023-05-24T09:26:36.635Z,100534.78
2023-05-24T09:29:07.303Z,100538.97
2023-05-24T09:31:35.137Z,100541.28
2023-05-24T09:34:02.180Z,100546.31
2023-05-24T09:36:33.508Z,100538.94
2023-05-24T09:39:09.014Z,100537.66
2023-05-24T09:41:38.871Z,100539.19
2023-05-24T09:44:06.120Z,100542.34
2023-05-24T09:46:38.267Z,100532.00
2023-05-24T09:49:06.752Z,100535.94
2023-05-24T09:51:38.237Z,100531.13
2023-05-24T09:54:05.756Z,100541.72
2023-05-24T09:56:33.673Z,100538.97
2023-05-24T09:59:06.079Z,100536.31
2023-05-24T10:01:33.937Z,100533.13
2023-05-24T10:04:03.775Z,100542.22
2023-05-24T10:06:36.997Z,100536.00
2023-05-24T10:09:08.782Z,100525.66
2023-05-24T10:11:39.984Z,100528.47
2023-05-24T10:14:09.050Z,100527.41
2023-05-24T10:16:38.388Z,100519.41
2023-05-24T10:19:05.986Z,100525.84
2023-05-24T10:21:34.052Z,100515.75
2023-05-24T10:24:03.686Z,100516.13
2023-05-24T10:26:33.085Z,100518.16
2023-05-24T10:29:06.374Z,100509.31
2023-05-24T10:31:35.555Z,100507.97
2023-05-24T10:34:08.389Z,100513.50
2023-05-24T10:36:37.073Z,100517.94
2023-05-24T10:39:04.206Z,100510.34
2023-05-24T10:41:39.749Z,100509.94
2023-05-24T10:44:11.624Z,100512.63
2023-05-24T10:47:11.092Z,100508.44
2023-05-24T10:49:39.738Z,100513.28
2023-05-24T10:52:10.294Z,100504.03
2023-05-24T10:54:39.717Z,100493.44
2023-05-24T10:57:08.400Z,100497.06
2023-05-24T10:59:40.312Z,100494.34
2023-05-24T11:02:16.471Z,100487.38
2023-05-24T11:04:46.538Z,100485.81
2023-05-24T11:07:17.069Z,100483.50
2023-05-24T11:09:48.589Z,100474.25
2023-05-24T11:12:17.840Z,100473.09
2023-05-24T11:14:49.910Z,100471.47
2023-05-24T11:17:18.900Z,100456.63
2023-05-24T11:19:50.492Z,100461.00
2023-05-24T11:22:25.809Z,100461.16
2023-05-24T11:24:53.752Z,100444.44
2023-05-24T11:27:20.394Z,100456.16
2023-05-24T11:29:52.931Z,100443.00
2023-05-24T11:32:21.331Z,100447.66
2023-05-24T11:34:48.862Z,100444.47
2023-05-24T11:37:17.898Z,100438.28
2023-05-24T11:39:50.388Z,100442.13
2023-05-24T11:42:17.404Z,100441.59
2023-05-24T11:44:43.972Z,100434.16
2023-05-24T11:47:11.916Z,100435.03
2023-05-24T11:49:38.361Z,100436.56
2023-05-24T11:52:05.203Z,100434.22
2023-05-24T11:54:34.965Z,100444.75
2023-05-24T11:57:02.178Z,100438.34
2023-05-24T11:59:29.435Z,100446.47
2023-05-24T12:02:08.765Z,100439.31
2023-05-24T12:04:37.951Z,100438.66
2023-05-24T12:07:11.033Z,100436.38
2023-05-24T12:09:37.748Z,100429.78
2023-05-24T12:12:04.520Z,100434.56
2023-05-24T12:14:33.713Z,100434.22
2023-05-24T12:17:03.742Z,100426.81
2023-05-24T12:19:37.278Z,100425.72
2023-05-24T12:22:06.375Z,100426.16
2023-05-24T12:24:33.547Z,100422.13
2023-05-24T12:27:02.063Z,100423.88
2023-05-24T12:29:41.765Z,100414.47
2023-05-24T12:32:14.751Z,100415.31
2023-05-24T12:34:43.557Z,100408.97
2023-05-24T12:37:12.267Z,100406.28
2023-05-24T12:39:39.754Z,100403.13
2023-05-24T12:42:06.508Z,100408.00
2023-05-24T12:44:45.472Z,100399.22
2023-05-24T12:47:12.130Z,100389.88
2023-05-24T12:49:38.710Z,100395.13
2023-05-24T12:52:06.866Z,100382.88
2023-05-24T12:54:33.568Z,100375.59
2023-05-24T12:57:02.586Z,100378.53
2023-05-24T12:59:29.626Z,100370.53
2023-05-24T13:01:56.703Z,100370.41
2023-05-24T13:04:26.109Z,100364.28
2023-05-24T13:06:52.888Z,100362.72
2023-05-24T13:09:21.577Z,100355.81
2023-05-24T13:11:48.297Z,100352.59
2023-05-24T13:14:16.624Z,100356.31
2023-05-24T13:16:44.393Z,100349.16
2023-05-24T13:19:12.042Z,100348.16
2023-05-24T13:21:39.061Z,100346.34
2023-05-24T13:24:07.575Z,100338.25
2023-05-24T13:26:38.194Z,100335.59
2023-05-24T13:31:37.408Z,100334.84
2023-05-24T13:34:04.490Z,100335.03
2023-05-24T13:36:31.010Z,100336.31
2023-05-24T13:39:13.260Z,100331.75
2023-05-24T13:41:42.991Z,100327.88
2023-05-24T13:44:10.010Z,100324.94
2023-05-24T13:46:37.088Z,100339.75
2023-05-24T13:49:04.364Z,100328.50
2023-05-24T13:51:30.890Z,100331.28
2023-05-24T13:53:57.538Z,100329.59
2023-05-24T13:56:24.978Z,100329.69
2023-05-24T13:58:52.805Z,100316.66
2023-05-24T14:01:19.533Z,100320.25
2023-05-24T14:03:46.253Z,100315.94
2023-05-24T14:06:12.861Z,100315.94
2023-05-24T14:08:39.496Z,100311.53
2023-05-24T14:11:06.385Z,100313.59
2023-05-24T14:14:23.394Z,100308.50
2023-05-24T14:16:19.481Z,100301.38
2023-05-24T14:18:48.947Z,100298.69
2023-05-24T14:21:15.740Z,100291.56
2023-05-24T14:23:42.292Z,100280.78
2023-05-24T14:26:08.826Z,100287.69
2023-05-24T14:28:35.425Z,100283.25
2023-05-24T14:31:02.525Z,100282.34
2023-05-24T14:33:29.059Z,100272.53
2023-05-24T14:35:55.632Z,100270.66
2023-05-24T14:38:23.889Z,100277.75
2023-05-24T14:40:51.217Z,100264.50
2023-05-24T14:43:17.915Z,100269.00
2023-05-24T14:45:44.687Z,100266.38
2023-05-24T14:48:12.451Z,100271.66
2023-05-24T14:50:40.328Z,100272.66
2023-05-24T14:53:12.175Z,100273.63
2023-05-24T14:55:43.103Z,100272.78
2023-05-24T14:58:13.612Z,100271.72
2023-05-24T15:00:41.730Z,100273.44
2023-05-24T15:03:09.031Z,100269.06
2023-05-24T15:05:36.393Z,100273.44
2023-05-24T15:08:03.253Z,100270.72
2023-05-24T15:10:29.835Z,100265.47
2023-05-24T15:12:56.337Z,100271.66
2023-05-24T15:15:22.880Z,100275.19
2023-05-24T15:17:49.853Z,100282.19
2023-05-24T15:20:16.599Z,100287.66
2023-05-24T15:22:43.286Z,100292.06
2023-05-24T15:25:10.681Z,100295.41
2023-05-24T15:27:37.206Z,100303.38
2023-05-24T15:30:04.647Z,100314.78
2023-05-24T15:32:31.748Z,100324.44
2023-05-24T15:35:00.189Z,100317.56
2023-05-24T15:37:27.234Z,100320.25
2023-05-24T15:39:54.419Z,100314.75
2023-05-24T15:42:21.860Z,100313.69
2023-05-24T15:44:48.335Z,100317.13
2023-05-24T15:47:14.834Z,100317.16
2023-05-24T15:49:41.464Z,100323.16
2023-05-24T15:52:08.723Z,100314.97
2023-05-24T15:54:35.565Z,100331.75
2023-05-24T15:57:02.619Z,100361.53
2023-05-24T15:59:29.368Z,100406.03
2023-05-24T16:01:56.834Z,100452.59
2023-05-24T16:04:23.687Z,100427.13
2023-05-24T16:06:50.304Z,100472.13
2023-05-24T16:09:16.852Z,100503.34
2023-05-24T16:11:43.394Z,100496.41
2023-05-24T16:14:10.383Z,100460.66
2023-05-24T16:16:38.158Z,100459.75
2023-05-24T16:19:04.754Z,100437.22
2023-05-24T16:21:32.768Z,100454.38
2023-05-24T16:24:01.918Z,100460.25
2023-05-24T16:26:30.712Z,100452.88
2023-05-24T16:28:57.435Z,100471.03
2023-05-24T16:31:24.089Z,100474.41
2023-05-24T16:33:50.779Z,100494.09
2023-05-24T16:36:17.435Z,100484.06
2023-05-24T16:38:43.915Z,100489.41
2023-05-24T16:41:11.157Z,100473.63
2023-05-24T16:43:37.681Z,100479.81
2023-05-24T16:46:04.244Z,100495.47
2023-05-24T16:48:31.640Z,100490.78
2023-05-24T16:50:58.700Z,100490.59
2023-05-24T16:53:26.789Z,100501.13
2023-05-24T16:55:54.737Z,100504.56
2023-05-24T16:58:22.309Z,100511.88
2023-05-24T17:00:49.133Z,100502.25
2023-05-24T17:03:15.938Z,100510.19
2023-05-24T17:05:43.446Z,100515.25
2023-05-24T17:08:10.073Z,100510.69
2023-05-24T17:10:36.590Z,100516.63
2023-05-24T17:13:03.860Z,100525.00
2023-05-24T17:15:30.452Z,100527.50
2023-05-24T17:17:57.176Z,100529.81
2023-05-24T17:20:23.748Z,100530.88
2023-05-24T17:22:50.441Z,100539.88
2023-05-24T17:25:17.002Z,100547.94
2023-05-24T17:27:43.462Z,100535.28
2023-05-24T17:30:10.240Z,100528.63
2023-05-24T17:32:36.888Z,100541.94
2023-05-24T17:35:03.947Z,100544.28
2023-05-24T17:37:30.444Z,100534.50
2023-05-24T17:39:57.079Z,100510.78
2023-05-24T17:42:24.792Z,100501.16
2023-05-24T17:44:51.358Z,100499.97
2023-05-24T17:47:18.150Z,100494.66
2023-05-24T17:49:44.638Z,100490.56
2023-05-24T17:52:13.983Z,100485.88
2023-05-24T17:54:40.727Z,100483.00
2023-05-24T17:57:07.815Z,100471.56
2023-05-24T17:59:34.257Z,100462.75
2023-05-24T18:02:00.725Z,100461.16
2023-05-24T18:04:27.217Z,100457.09
2023-05-24T18:06:54.479Z,100462.19
2023-05-24T18:09:21.452Z,100470.94
2023-05-24T18:11:48.143Z,100467.88
2023-05-24T18:14:14.781Z,100470.84
2023-05-24T18:16:41.462Z,100460.63
2023-05-24T18:19:07.995Z,100468.34
2023-05-24T18:21:34.470Z,100476.03
2023-05-24T18:24:00.900Z,100474.63
2023-05-24T18:26:27.504Z,100489.16
2023-05-24T18:28:54.500Z,100483.31
2023-05-24T18:31:21.886Z,100490.97
2023-05-24T18:33:48.638Z,100504.91
2023-05-24T18:36:15.153Z,100507.72
2023-05-24T18:38:41.634Z,100514.44
2023-05-24T18:41:11.963Z,100528.44
2023-05-24T18:43:38.773Z,100527.72
2023-05-24T18:46:05.333Z,100523.31
2023-05-24T18:48:31.770Z,100530.59
2023-05-24T18:50:58.293Z,100543.69
2023-05-24T18:53:25.706Z,100544.84
2023-05-24T18:55:52.253Z,100551.94
2023-05-24T18:58:18.788Z,100554.63
2023-05-24T19:00:45.330Z,100561.06
2023-05-24T19:03:13.135Z,100563.78
2023-05-24T19:05:42.595Z,100572.94
2023-05-24T19:08:10.444Z,100574.72
2023-05-24T19:10:36.924Z,100579.41
2023-05-24T19:13:03.462Z,100584.22
2023-05-24T19:15:29.966Z,100577.22
2023-05-24T19:17:57.853Z,100582.78
2023-05-24T19:20:24.793Z,100584.94
2023-05-24T19:22:51.317Z,100599.84
2023-05-24T19:25:17.765Z,100623.97
2023-05-24T19:27:57.845Z,100680.41
2023-05-24T19:30:25.452Z,100703.56
2023-05-24T19:32:51.973Z,100713.69
2023-05-24T19:35:18.544Z,100710.53
2023-05-24T19:37:45.022Z,100711.66
2023-05-24T19:40:11.776Z,100723.16
2023-05-24T19:42:38.239Z,100718.78
2023-05-24T19:45:05.348Z,100708.38
2023-05-24T19:47:31.834Z,100729.69
2023-05-24T19:49:58.415Z,100724.03
2023-05-24T19:52:24.915Z,100728.97
2023-05-24T19:54:51.390Z,100736.25
2023-05-24T19:57:17.803Z,100737.41
2023-05-24T19:59:44.285Z,100748.97
2023-05-24T20:02:10.759Z,100762.00
2023-05-24T20:04:41.651Z,100768.28
2023-05-24T20:07:11.487Z,100776.91
2023-05-24T20:09:38.217Z,100781.41
2023-05-24T20:12:04.815Z,100774.59
2023-05-24T20:14:31.675Z,100765.25
2023-05-24T20:16:59.120Z,100757.53
2023-05-24T20:19:27.133Z,100757.09
2023-05-24T20:21:53.790Z,100758.16
2023-05-24T20:24:20.194Z,100761.94
2023-05-24T20:26:46.701Z,100763.72
2023-05-24T20:29:13.174Z,100761.19
2023-05-24T20:31:39.731Z,100757.22
2023-05-24T20:34:06.192Z,100754.13
2023-05-24T20:36:33.243Z,100748.56
2023-05-24T20:38:59.796Z,100745.41
2023-05-24T20:41:26.557Z,100742.53
2023-05-24T20:43:53.137Z,100742.75
2023-05-24T20:46:19.683Z,100739.59
2023-05-24T20:48:46.557Z,100737.91
2023-05-24T20:51:13.015Z,100726.31
2023-05-24T20:53:40.194Z,100727.78
2023-05-24T20:56:06.955Z,100735.69
2023-05-24T20:58:33.471Z,100746.47
2023-05-24T21:01:00.094Z,100738.00
2023-05-24T21:03:26.888Z,100728.09
2023-05-24T21:05:53.484Z,100714.03
2023-05-24T21:08:19.992Z,100711.25
2023-05-24T21:10:46.460Z,100705.75
2023-05-24T21:13:12.881Z,100699.97
2023-05-24T21:15:39.347Z,100720.34
2023-05-24T21:18:05.973Z,100726.13
2023-05-24T21:20:32.971Z,100736.41
2023-05-24T21:23:00.528Z,100739.78
2023-05-24T21:25:27.026Z,100753.31
2023-05-24T21:27:53.448Z,100742.78
2023-05-24T21:30:19.886Z,100748.22
2023-05-24T21:32:46.645Z,100748.81
2023-05-24T21:35:13.572Z,100750.53
2023-05-24T21:37:40.054Z,100746.81
2023-05-24T21:40:07.045Z,100746.50
2023-05-24T21:42:33.509Z,100754.00
2023-05-24T21:45:00.020Z,100757.31
2023-05-24T21:47:26.777Z,100763.22
2023-05-24T21:49:54.835Z,100756.91
2023-05-24T21:52:21.577Z,100758.19
2023-05-24T21:54:48.091Z,100754.00
2023-05-24T21:57:14.882Z,100759.38
2023-05-24T21:59:44.373Z,100752.59
2023-05-24T22:02:10.982Z,100745.63
2023-05-24T22:04:37.482Z,100751.00
2023-05-24T22:07:04.135Z,100752.59
2023-05-24T22:09:30.597Z,100748.72
2023-05-24T22:11:57.427Z,100753.00
2023-05-24T22:14:26.963Z,100753.00
2023-05-24T22:17:04.622Z,100744.19
2023-05-24T22:19:41.226Z,100731.31
2023-05-24T22:22:15.096Z,100736.94
2023-05-24T22:24:41.958Z,100737.81
2023-05-24T22:27:13.848Z,100743.91
2023-05-24T22:29:40.441Z,100743.03
2023-05-24T22:32:07.216Z,100752.13
2023-05-24T22:34:35.954Z,100752.91
2023-05-24T22:37:02.444Z,100755.81
2023-05-24T22:39:32.359Z,100746.22
2023-05-24T22:42:02.377Z,100744.22
2023-05-24T22:44:28.834Z,100743.72
2023-05-24T22:46:58.833Z,100743.03
2023-05-24T22:49:31.685Z,100733.63
2023-05-24T22:51:58.717Z,100724.00
2023-05-24T22:54:25.210Z,100730.09
2023-05-24T22:56:51.703Z,100725.63
2023-05-24T22:59:18.213Z,100727.22
2023-05-24T23:01:44.924Z,100727.44
2023-05-24T23:04:21.372Z,100721.31
2023-05-24T23:06:55.057Z,100729.22
2023-05-24T23:09:34.523Z,100731.41
2023-05-24T23:12:07.186Z,100735.31
2023-05-24T23:14:38.283Z,100740.13
2023-05-24T23:17:14.922Z,100730.44
2023-05-24T23:19:42.617Z,100745.41
2023-05-24T23:22:11.778Z,100736.59
2023-05-24T23:24:39.537Z,100745.09
2023-05-24T23:27:06.455Z,100742.13
2023-05-24T23:29:33.354Z,100754.00
2023-05-24T23:32:00.415Z,100754.53
2023-05-24T23:34:27.290Z,100747.50
2023-05-24T23:36:53.739Z,100741.41
2023-05-24T23:39:20.523Z,100750.09
2023-05-24T23:41:49.044Z,100751.53
2023-05-24T23:44:15.970Z,100755.50
2023-05-24T23:46:44.654Z,100760.28
2023-05-24T23:49:11.207Z,100753.91
2023-05-24T23:51:37.658Z,100756.97
2023-05-24T23:54:04.113Z,100760.97
2023-05-24T23:56:30.597Z,100760.47
2023-05-24T23:58:57.187Z,100769.19
